createdAt,value
2018-03-02T00:00:49.959Z,23.85
2018-03-02T00:03:20.449Z,24.70
2018-03-02T00:05:50.586Z,23.25
2018-03-02T00:08:21.901Z,24.02
2018-03-02T00:10:52.523Z,23.48
2018-03-02T00:13:22.213Z,25.45
2018-03-02T00:15:52.378Z,23.20
2018-03-02T00:18:22.273Z,25.30
2018-03-02T00:20:52.139Z,24.85
2018-03-02T00:23:22.735Z,22.42
2018-03-02T00:25:52.343Z,24.83
2018-03-02T00:28:26.560Z,23.23
2018-03-02T00:30:56.150Z,25.00
2018-03-02T00:33:26.113Z,24.37
2018-03-02T00:35:56.896Z,25.92
2018-03-02T00:38:26.778Z,26.00
2018-03-02T00:40:56.549Z,25.62
2018-03-02T00:43:26.207Z,25.58
2018-03-02T00:45:55.867Z,26.95
2018-03-02T00:48:25.793Z,28.40
2018-03-02T00:50:56.365Z,26.65
2018-03-02T00:53:25.972Z,26.77
2018-03-02T00:55:55.985Z,25.25
2018-03-02T00:58:25.741Z,24.52
2018-03-02T01:00:55.454Z,28.98
2018-03-02T01:03:25.487Z,27.85
2018-03-02T01:05:55.903Z,25.30
2018-03-02T01:08:25.507Z,24.80
2018-03-02T01:10:55.760Z,25.52
2018-03-02T01:13:27.848Z,24.60
2018-03-02T01:15:57.456Z,28.98
2018-03-02T01:18:27.156Z,24.73
2018-03-02T01:20:57.102Z,29.95
2018-03-02T01:23:26.618Z,27.37
2018-03-02T01:25:56.673Z,28.38
2018-03-02T01:28:27.510Z,24.40
2018-03-02T01:30:57.244Z,27.92
2018-03-02T01:33:26.881Z,27.13
2018-03-02T01:35:56.357Z,26.67
2018-03-02T01:38:26.068Z,26.65
2018-03-02T01:40:56.547Z,30.37
2018-03-02T01:43:26.444Z,28.92
2018-03-02T01:45:55.934Z,27.98
2018-03-02T01:48:25.409Z,27.45
2018-03-02T01:50:55.000Z,29.20
2018-03-02T01:53:25.460Z,28.23
2018-03-02T01:55:54.872Z,27.08
2018-03-02T01:58:24.283Z,25.58
2018-03-02T02:00:53.823Z,27.73
2018-03-02T02:03:24.042Z,26.25
2018-03-02T02:05:54.260Z,25.20
2018-03-02T02:08:23.897Z,26.00
2018-03-02T02:10:53.814Z,28.30
2018-03-02T02:13:23.112Z,29.85
2018-03-02T02:15:52.577Z,29.05
2018-03-02T02:18:23.136Z,27.95
2018-03-02T02:20:54.182Z,29.15
2018-03-02T02:23:24.236Z,31.48
2018-03-02T02:25:53.503Z,27.65
2018-03-02T02:28:22.879Z,28.00
2018-03-02T02:30:52.895Z,27.52
2018-03-02T02:33:25.334Z,28.50
2018-03-02T02:35:59.599Z,28.45
2018-03-02T02:38:29.904Z,30.98
2018-03-02T02:40:59.164Z,30.37
2018-03-02T02:43:28.444Z,28.27
2018-03-02T02:45:57.629Z,26.85
2018-03-02T02:48:26.805Z,28.52
2018-03-02T02:50:56.852Z,28.70
2018-03-02T02:53:29.885Z,29.27
2018-03-02T02:55:59.478Z,29.55
2018-03-02T02:58:28.951Z,29.17
2018-03-02T03:00:58.632Z,30.67
2018-03-02T03:03:30.016Z,30.00
2018-03-02T03:05:59.337Z,31.55
2018-03-02T03:08:28.878Z,25.83
2018-03-02T03:10:58.905Z,32.30
2018-03-02T03:13:29.156Z,29.83
2018-03-02T03:15:58.967Z,29.58
2018-03-02T03:18:28.404Z,26.92
2018-03-02T04:04:39.759Z,26.75
2018-03-02T04:07:09.057Z,32.45
2018-03-02T04:09:38.820Z,29.20
2018-03-02T04:12:08.826Z,30.23
2018-03-02T04:14:38.054Z,30.00
2018-03-02T04:17:07.322Z,28.58
2018-03-02T04:19:36.567Z,28.02
2018-03-02T04:22:06.159Z,30.23
2018-03-02T04:24:35.503Z,32.10
2018-03-02T04:27:04.890Z,30.33
2018-03-02T04:29:34.201Z,29.40
2018-03-02T04:32:04.172Z,28.87
2018-03-02T04:34:33.348Z,26.58
2018-03-02T04:37:03.826Z,31.80
2018-03-02T04:39:33.091Z,32.78
2018-03-02T04:42:03.002Z,31.85
2018-03-02T04:44:32.505Z,31.92
2018-03-02T04:47:02.567Z,30.02
2018-03-02T04:49:32.205Z,30.05
2018-03-02T04:52:01.363Z,28.80
2018-03-02T04:54:30.483Z,32.90
2018-03-02T04:57:00.001Z,32.03
2018-03-02T04:59:29.640Z,31.25
2018-03-02T05:01:59.659Z,31.15
2018-03-02T05:04:29.209Z,32.78
2018-03-02T05:06:58.762Z,29.60
2018-03-02T05:09:29.004Z,31.70
2018-03-02T05:11:58.624Z,32.60
2018-03-02T05:14:27.785Z,29.27
2018-03-02T05:16:57.653Z,32.33
2018-03-02T05:19:27.976Z,28.92
2018-03-02T05:21:57.512Z,30.25
2018-03-02T05:24:27.695Z,30.02
2018-03-02T05:26:57.206Z,32.00
2018-03-02T05:29:26.769Z,30.20
2018-03-02T05:31:56.798Z,30.62
2018-03-02T05:34:26.146Z,27.60
2018-03-02T05:36:56.197Z,27.37
2018-03-02T05:39:29.941Z,30.35
2018-03-02T05:41:59.396Z,27.98
2018-03-02T05:44:28.969Z,33.90
2018-03-02T05:46:58.486Z,31.35
2018-03-02T05:49:29.581Z,34.30
2018-03-02T05:51:59.561Z,31.37
2018-03-02T05:54:28.824Z,28.98
2018-03-02T05:56:58.389Z,30.05
2018-03-02T05:59:28.832Z,33.08
2018-03-02T06:01:58.681Z,32.70
2018-03-02T06:04:28.521Z,29.63
2018-03-02T06:06:58.145Z,32.13
2018-03-02T06:09:28.771Z,34.92
2018-03-02T06:11:59.184Z,32.03
2018-03-02T06:14:29.384Z,34.45
2018-03-02T06:16:59.052Z,33.83
2018-03-02T06:19:28.622Z,33.03
2018-03-02T06:21:58.409Z,34.33
2018-03-02T06:24:28.384Z,35.22
2018-03-02T06:26:58.258Z,34.45
2018-03-02T06:29:28.481Z,34.15
2018-03-02T06:31:58.010Z,32.88
2018-03-02T06:34:34.907Z,33.00
2018-03-02T06:37:04.557Z,29.40
2018-03-02T06:39:34.933Z,34.83
2018-03-02T06:42:04.911Z,35.03
2018-03-02T06:44:34.987Z,37.88
2018-03-02T06:47:04.746Z,33.17
2018-03-02T06:49:34.756Z,32.33
2018-03-02T06:52:04.388Z,34.63
2018-03-02T06:54:34.805Z,35.30
2018-03-02T06:57:12.237Z,34.08
2018-03-02T06:59:42.813Z,34.28
2018-03-02T07:02:12.434Z,34.08
2018-03-02T07:04:51.055Z,33.85
2018-03-02T07:07:21.460Z,33.67
2018-03-02T07:09:51.688Z,34.70
2018-03-02T07:12:22.973Z,35.22
2018-03-02T07:14:53.170Z,33.28
2018-03-02T07:17:22.987Z,34.75
2018-03-02T07:19:54.151Z,34.55
2018-03-02T07:22:25.040Z,36.25
2018-03-02T07:24:55.840Z,36.53
2018-03-02T07:27:25.654Z,37.50
2018-03-02T07:29:56.489Z,37.22
2018-03-02T07:32:26.454Z,38.30
2018-03-02T07:34:56.882Z,32.60
2018-03-02T07:37:27.001Z,33.47
2018-03-02T07:39:56.716Z,35.13
2018-03-02T07:42:26.527Z,31.55
2018-03-02T07:44:57.331Z,37.75
2018-03-02T07:47:27.195Z,35.28
2018-03-02T07:49:57.056Z,34.45
2018-03-02T07:52:26.728Z,36.90
2018-03-02T07:54:56.330Z,37.50
2018-03-02T07:57:26.575Z,36.28
2018-03-02T07:59:57.529Z,38.45
2018-03-02T08:02:27.165Z,34.92
2018-03-02T08:04:57.086Z,35.38
2018-03-02T08:07:27.624Z,36.97
2018-03-02T08:09:58.369Z,35.15
2018-03-02T08:14:35.989Z,40.47
2018-03-02T08:17:09.869Z,36.92
2018-03-02T08:19:39.796Z,36.20
2018-03-02T08:22:10.248Z,38.17
2018-03-02T08:24:40.097Z,37.33
2018-03-02T08:28:12.512Z,34.40
2018-03-02T08:30:42.614Z,30.67
2018-03-02T08:33:12.670Z,34.10
2018-03-02T08:35:45.036Z,35.92
2018-03-02T08:38:14.733Z,36.78
2018-03-02T08:40:45.309Z,37.08
2018-03-02T08:43:15.154Z,37.40
2018-03-02T08:45:45.082Z,35.17
2018-03-02T08:48:15.545Z,38.20
2018-03-02T08:50:45.216Z,34.05
2018-03-02T08:53:15.820Z,34.25
2018-03-02T08:55:45.261Z,30.92
2018-03-02T08:58:16.069Z,35.03
2018-03-02T09:00:45.795Z,35.90
2018-03-02T09:03:16.644Z,32.97
2018-03-02T09:05:49.255Z,35.80
2018-03-02T09:08:20.173Z,35.42
2018-03-02T09:10:49.837Z,33.33
2018-03-02T09:13:19.455Z,35.20
2018-03-02T09:15:49.631Z,35.85
2018-03-02T09:18:19.441Z,35.22
2018-03-02T09:20:50.027Z,33.97
2018-03-02T09:23:19.553Z,33.38
2018-03-02T09:25:49.172Z,35.10
2018-03-02T09:28:23.697Z,34.05
2018-03-02T09:30:53.472Z,33.75
2018-03-02T09:33:24.099Z,34.15
2018-03-02T09:35:54.616Z,33.53
2018-03-02T09:38:29.189Z,36.03
2018-03-02T09:41:04.925Z,34.70
2018-03-02T09:43:36.043Z,34.58
2018-03-02T09:46:05.937Z,34.85
2018-03-02T09:48:36.149Z,34.42
2018-03-02T09:51:05.906Z,33.67
2018-03-02T09:53:36.305Z,30.65
2018-03-02T09:56:06.212Z,33.20
2018-03-02T09:58:36.061Z,31.23
2018-03-02T10:01:06.610Z,30.37
2018-03-02T10:03:36.394Z,31.35
2018-03-02T10:06:06.901Z,31.37
2018-03-02T10:08:36.441Z,33.88
2018-03-02T10:11:06.965Z,34.08
2018-03-02T10:13:37.269Z,31.30
2018-03-02T10:16:07.222Z,35.67
2018-03-02T10:18:39.403Z,32.05
2018-03-02T10:21:09.178Z,31.58
2018-03-02T10:23:39.688Z,32.25
2018-03-02T10:26:09.801Z,33.00
2018-03-02T10:28:39.736Z,35.67
2018-03-02T10:31:09.621Z,31.20
2018-03-02T10:33:39.293Z,34.33
2018-03-02T10:36:09.196Z,33.05
2018-03-02T10:38:38.782Z,33.33
2018-03-02T10:41:08.645Z,33.53
2018-03-02T10:43:38.507Z,32.85
2018-03-02T10:46:09.056Z,35.05
2018-03-02T10:48:39.532Z,34.88
2018-03-02T10:51:09.281Z,34.10
2018-03-02T10:53:39.699Z,34.47
2018-03-02T10:56:10.522Z,35.17
2018-03-02T10:58:40.815Z,33.60
2018-03-02T11:01:12.534Z,31.70
2018-03-02T11:03:47.331Z,33.33
2018-03-02T11:06:16.901Z,32.22
2018-03-02T11:08:46.566Z,32.42
2018-03-02T11:11:16.879Z,32.83
2018-03-02T11:13:47.616Z,31.23
2018-03-02T11:16:21.807Z,29.90
2018-03-02T11:18:56.411Z,31.80
2018-03-02T11:21:26.230Z,32.85
2018-03-02T11:23:55.979Z,30.90
2018-03-02T11:26:26.431Z,32.42
2018-03-02T11:28:55.959Z,33.42
2018-03-02T11:31:26.515Z,32.35
2018-03-02T11:33:56.365Z,32.53
2018-03-02T11:36:27.079Z,32.80
2018-03-02T11:38:57.918Z,31.17
2018-03-02T11:41:28.395Z,32.00
2018-03-02T11:43:58.112Z,32.97
2018-03-02T11:46:28.197Z,32.35
2018-03-02T11:48:57.901Z,30.35
2018-03-02T11:51:28.273Z,32.45
2018-03-02T11:53:57.966Z,32.55
2018-03-02T11:56:27.672Z,33.95
2018-03-02T11:58:57.900Z,32.95
2018-03-02T12:01:28.396Z,32.30
2018-03-02T12:03:59.014Z,32.40
2018-03-02T12:06:28.722Z,31.37
2018-03-02T12:08:59.147Z,30.48
2018-03-02T12:11:29.737Z,32.03
2018-03-02T12:13:59.703Z,32.22
2018-03-02T12:16:30.963Z,34.10
2018-03-02T12:19:01.390Z,32.47
2018-03-02T12:21:31.306Z,31.33
2018-03-02T12:24:01.302Z,31.10
2018-03-02T12:26:31.550Z,31.40
2018-03-02T12:29:02.265Z,35.03
2018-03-02T12:31:32.815Z,33.80
2018-03-02T12:34:02.699Z,32.70
2018-03-02T12:36:33.580Z,34.03
2018-03-02T12:39:05.031Z,32.15
2018-03-02T12:41:34.879Z,31.85
2018-03-02T12:44:04.985Z,30.95
2018-03-02T12:46:34.597Z,35.33
2018-03-02T12:49:04.395Z,33.75
2018-03-02T12:51:34.107Z,32.40
2018-03-02T12:54:04.132Z,32.40
2018-03-02T12:56:34.001Z,31.83
2018-03-02T12:59:04.410Z,33.60
2018-03-02T13:01:34.212Z,33.13
2018-03-02T13:04:04.816Z,34.55
2018-03-02T13:06:34.438Z,35.55
2018-03-02T13:09:04.888Z,31.87
2018-03-02T13:11:34.422Z,33.10
2018-03-02T13:14:04.616Z,32.95
2018-03-02T13:16:35.054Z,31.40
2018-03-02T13:19:04.973Z,30.83
2018-03-02T13:21:34.469Z,32.83
2018-03-02T13:24:10.259Z,33.28
2018-03-02T13:28:50.954Z,32.70
2018-03-02T13:31:20.555Z,33.00
2018-03-02T13:35:56.538Z,34.90
2018-03-02T13:38:26.242Z,33.80
2018-03-02T13:43:02.149Z,32.53
2018-03-02T13:45:31.788Z,34.67
2018-03-02T13:48:10.156Z,34.78
2018-03-02T13:50:39.983Z,34.67
2018-03-02T13:53:10.320Z,34.08
2018-03-02T13:55:40.109Z,35.63
2018-03-02T13:58:11.469Z,33.97
2018-03-02T14:00:44.956Z,33.42
2018-03-02T14:05:27.810Z,36.63
2018-03-02T14:07:57.420Z,34.33
2018-03-02T14:10:27.023Z,31.90
2018-03-02T14:12:56.539Z,34.15
2018-03-02T14:15:26.232Z,33.75
2018-03-02T14:17:55.920Z,35.15
2018-03-02T14:20:25.455Z,34.83
2018-03-02T14:22:54.918Z,35.50
2018-03-02T14:25:24.748Z,33.80
2018-03-02T14:27:55.418Z,34.75
2018-03-02T14:30:25.366Z,35.28
2018-03-02T14:32:54.870Z,35.45
2018-03-02T14:35:28.350Z,36.58
2018-03-02T14:37:58.027Z,35.25
2018-03-02T14:40:42.193Z,32.90
2018-03-02T14:43:11.753Z,32.00
2018-03-02T14:45:42.196Z,32.15
2018-03-02T14:48:13.157Z,33.38
2018-03-02T14:50:43.425Z,34.35
2018-03-02T14:53:13.775Z,33.22
2018-03-02T14:55:44.015Z,32.15
2018-03-02T14:58:14.441Z,34.30
2018-03-02T15:00:44.745Z,34.15
2018-03-02T15:03:14.796Z,31.83
2018-03-02T15:05:44.308Z,31.95
2018-03-02T15:08:13.951Z,32.70
2018-03-02T15:10:43.495Z,30.50
2018-03-02T15:13:17.425Z,33.00
2018-03-02T15:15:47.063Z,31.65
2018-03-02T15:18:16.619Z,32.45
2018-03-02T15:20:46.555Z,31.70
2018-03-02T15:23:16.068Z,31.30
2018-03-02T15:25:45.617Z,32.15
2018-03-02T15:28:15.544Z,32.67
2018-03-02T15:30:46.256Z,29.65
2018-03-02T15:33:16.042Z,29.05
2018-03-02T15:35:45.677Z,32.65
2018-03-02T15:38:16.112Z,30.77
2018-03-02T15:40:46.121Z,30.27
2018-03-02T15:43:15.831Z,31.67
2018-03-02T15:45:45.641Z,34.33
2018-03-02T15:48:15.255Z,35.60
2018-03-02T15:50:45.633Z,32.35
2018-03-02T15:53:15.972Z,33.38
2018-03-02T15:55:45.551Z,37.15
2018-03-02T15:58:15.111Z,37.25
2018-03-02T16:00:44.793Z,32.95
2018-03-02T16:03:14.367Z,33.78
2018-03-02T16:05:45.702Z,36.13
2018-03-02T16:08:15.242Z,33.75
2018-03-02T16:10:44.876Z,35.28
2018-03-02T16:13:14.825Z,37.72
2018-03-02T16:15:45.209Z,38.15
2018-03-02T16:18:14.858Z,36.42
2018-03-02T16:20:45.280Z,36.38
2018-03-02T16:26:18.784Z,37.35
2018-03-02T16:28:49.020Z,37.55
2018-03-02T16:31:19.595Z,35.83
2018-03-02T16:33:49.427Z,37.40
2018-03-02T16:36:19.107Z,43.13
2018-03-02T16:38:48.737Z,39.10
2018-03-02T16:41:18.453Z,35.88
2018-03-02T16:43:48.130Z,38.75
2018-03-02T16:46:17.728Z,39.42
2018-03-02T16:48:47.964Z,36.38
2018-03-02T16:51:22.875Z,36.63
2018-03-02T16:53:53.098Z,35.05
2018-03-02T16:56:23.445Z,36.60
2018-03-02T16:58:53.793Z,39.50
2018-03-02T17:01:24.110Z,38.80
2018-03-02T17:03:54.500Z,40.58
2018-03-02T17:06:24.777Z,46.20
2018-03-02T17:08:54.331Z,41.95
2018-03-02T17:11:24.564Z,44.38
2018-03-02T17:13:57.744Z,42.30
2018-03-02T17:16:27.099Z,38.65
2018-03-02T17:18:56.446Z,37.72
2018-03-02T17:21:31.784Z,39.50
2018-03-02T17:24:02.128Z,41.42
2018-03-02T17:26:31.683Z,40.20
2018-03-02T17:29:01.620Z,40.17
2018-03-02T17:31:31.840Z,39.05
2018-03-02T17:34:02.359Z,43.40
2018-03-02T17:36:32.662Z,41.37
2018-03-02T17:39:02.058Z,38.95
2018-03-02T17:41:32.240Z,41.30
2018-03-02T17:44:01.738Z,41.08
2018-03-02T17:46:31.797Z,42.00
2018-03-02T17:49:01.461Z,42.83
2018-03-02T17:51:31.598Z,41.08
2018-03-02T17:54:01.207Z,40.28
2018-03-02T17:56:30.981Z,39.97
2018-03-02T17:59:01.325Z,38.35
2018-03-02T18:01:31.470Z,39.53
2018-03-02T18:04:01.261Z,41.03
2018-03-02T18:06:30.807Z,40.35
2018-03-02T18:09:00.932Z,39.80
2018-03-02T18:11:30.404Z,39.85
2018-03-02T18:13:59.937Z,38.75
2018-03-02T18:16:29.522Z,40.33
2018-03-02T18:18:59.063Z,38.35
2018-03-02T18:21:28.679Z,40.50
2018-03-02T18:23:58.092Z,40.20
2018-03-02T18:26:28.631Z,39.17
2018-03-02T18:28:58.216Z,37.00
2018-03-02T18:31:27.721Z,40.75
2018-03-02T18:33:58.043Z,37.42
2018-03-02T18:36:27.493Z,37.33
2018-03-02T18:38:57.113Z,37.83
2018-03-02T18:41:26.571Z,37.17
2018-03-02T18:43:56.880Z,37.60
2018-03-02T18:46:27.970Z,39.13
2018-03-02T18:48:57.448Z,39.17
2018-03-02T18:51:27.663Z,35.38
2018-03-02T18:53:58.497Z,38.72
2018-03-02T18:56:28.223Z,37.83
2018-03-02T18:58:58.481Z,38.42
2018-03-02T19:01:28.037Z,36.72
2018-03-02T19:03:57.564Z,41.28
2018-03-02T19:06:28.050Z,36.60
2018-03-02T19:08:57.454Z,36.38
2018-03-02T19:11:27.054Z,37.65
2018-03-02T19:13:56.558Z,38.75
2018-03-02T19:16:25.923Z,39.75
2018-03-02T19:18:55.352Z,36.20
2018-03-02T19:21:24.896Z,38.70
2018-03-02T19:23:55.170Z,36.80
2018-03-02T19:26:24.646Z,35.83
2018-03-02T19:28:55.032Z,37.10
2018-03-02T19:31:25.451Z,35.28
2018-03-02T19:33:54.989Z,34.67
2018-03-02T19:36:27.553Z,39.10
2018-03-02T19:38:57.686Z,37.90
2018-03-02T19:41:27.718Z,37.67
2018-03-02T19:43:57.164Z,38.17
2018-03-02T19:46:27.011Z,36.65
2018-03-02T19:48:57.578Z,35.80
2018-03-02T19:51:27.256Z,36.53
2018-03-02T19:53:57.468Z,35.75
2018-03-02T19:56:27.043Z,35.15
2018-03-02T19:58:56.550Z,36.58
2018-03-02T20:01:26.006Z,35.47
2018-03-02T20:03:56.250Z,35.20
2018-03-02T20:06:27.858Z,35.63
2018-03-02T20:08:58.093Z,36.15
2018-03-02T20:11:28.322Z,36.05
2018-03-02T20:13:58.425Z,36.67
2018-03-02T20:16:28.638Z,34.60
2018-03-02T20:18:58.353Z,36.25
2018-03-02T20:24:28.618Z,39.63
2018-03-02T20:26:58.922Z,38.03
2018-03-02T20:29:28.517Z,37.28
2018-03-02T20:31:58.391Z,38.25
2018-03-02T20:34:28.857Z,35.42
2018-03-02T20:37:01.615Z,38.05
2018-03-02T20:39:31.742Z,39.55
2018-03-02T20:42:02.390Z,36.33
2018-03-02T20:44:32.920Z,33.85
2018-03-02T20:47:02.446Z,36.80
2018-03-02T20:49:32.914Z,35.33
2018-03-02T20:52:02.373Z,39.53
2018-03-02T20:54:32.627Z,36.80
2018-03-02T20:57:02.429Z,36.58
2018-03-02T20:59:31.896Z,38.85
2018-03-02T21:02:01.338Z,37.53
2018-03-02T21:04:31.007Z,35.25
2018-03-02T21:07:00.483Z,37.92
2018-03-02T21:10:49.059Z,38.90
2018-03-02T21:13:19.374Z,36.40
2018-03-02T21:15:48.923Z,35.05
2018-03-02T21:18:19.470Z,36.15
2018-03-02T21:20:48.968Z,35.05
2018-03-02T21:23:19.100Z,34.90
2018-03-02T21:25:48.403Z,37.92
2018-03-02T21:28:17.995Z,36.88
2018-03-02T21:30:47.383Z,38.15
2018-03-02T21:33:21.080Z,39.50
2018-03-02T21:36:01.188Z,39.72
2018-03-02T21:38:36.608Z,34.03
2018-03-02T21:41:09.187Z,34.50
2018-03-02T21:43:39.356Z,37.03
2018-03-02T21:46:08.748Z,33.72
2018-03-02T21:48:38.133Z,37.88
2018-03-02T21:51:07.509Z,34.90
2018-03-02T21:53:36.884Z,35.78
2018-03-02T21:56:07.005Z,35.83
2018-03-02T21:58:37.204Z,34.88
2018-03-02T22:01:07.061Z,36.97
2018-03-02T22:03:36.398Z,34.33
2018-03-02T22:06:06.585Z,33.63
2018-03-02T22:08:35.974Z,35.42
2018-03-02T22:11:06.619Z,33.45
2018-03-02T22:13:36.036Z,38.35
2018-03-02T22:16:07.325Z,35.95
2018-03-02T22:18:39.253Z,38.42
2018-03-02T22:21:09.022Z,36.63
2018-03-02T22:23:39.244Z,37.22
2018-03-02T22:26:09.488Z,39.03
2018-03-02T22:28:39.188Z,34.72
2018-03-02T22:31:08.739Z,36.65
2018-03-02T22:33:38.083Z,38.22
2018-03-02T22:36:08.303Z,37.85
2018-03-02T22:38:38.416Z,35.28
2018-03-02T22:41:08.444Z,35.35
2018-03-02T22:43:38.721Z,36.17
2018-03-02T22:47:11.533Z,37.58
2018-03-02T22:49:41.032Z,34.63
2018-03-02T22:52:10.537Z,38.10
2018-03-02T22:54:40.036Z,38.50
2018-03-02T22:57:09.631Z,38.85
2018-03-02T22:59:40.002Z,35.63
2018-03-02T23:02:13.494Z,38.80
2018-03-02T23:04:43.796Z,35.13
2018-03-02T23:07:13.370Z,38.28
2018-03-02T23:09:42.919Z,38.08
2018-03-02T23:12:13.399Z,37.47
2018-03-02T23:14:43.107Z,35.90
2018-03-02T23:17:12.678Z,37.20
2018-03-02T23:19:42.799Z,38.35
2018-03-02T23:22:13.109Z,35.92
2018-03-02T23:24:42.702Z,37.80
2018-03-02T23:27:12.235Z,35.88
2018-03-02T23:29:42.380Z,36.40
2018-03-02T23:32:14.062Z,37.50
2018-03-02T23:34:43.673Z,36.22
2018-03-02T23:37:13.203Z,37.40
2018-03-02T23:39:42.728Z,36.72
2018-03-02T23:42:13.360Z,35.90
2018-03-02T23:44:44.786Z,35.90
2018-03-02T23:47:14.504Z,36.95
2018-03-02T23:49:44.009Z,35.60
2018-03-02T23:52:13.610Z,37.92
2018-03-02T23:54:43.184Z,37.25
2018-03-02T23:57:12.924Z,37.92
2018-03-02T23:59:42.533Z,39.47
